sensor_id;sensor_type;location;lat;lon;timestamp;P1;durP1;ratioP1;P2;durP2;ratioP2
66741;SDS011;53654;54.152;19.432;2024-02-04T00:00:29;11.30;;;3.60;;
66741;SDS011;53654;54.152;19.432;2024-02-04T00:03:17;11.20;;;3.90;;
66741;SDS011;53654;54.152;19.432;2024-02-04T00:05:48;11.60;;;3.50;;
66741;SDS011;53654;54.152;19.432;2024-02-04T00:08:17;10.10;;;3.60;;
66741;SDS011;53654;54.152;19.432;2024-02-04T00:10:45;14.20;;;3.70;;
66741;SDS011;53654;54.152;19.432;2024-02-04T00:13:13;10.50;;;3.40;;
66741;SDS011;53654;54.152;19.432;2024-02-04T00:15:41;9.60;;;3.60;;
66741;SDS011;53654;54.152;19.432;2024-02-04T00:18:09;9.60;;;3.90;;
66741;SDS011;53654;54.152;19.432;2024-02-04T00:20:37;12.20;;;4.00;;
66741;SDS011;53654;54.152;19.432;2024-02-04T00:23:05;12.50;;;3.90;;
66741;SDS011;53654;54.152;19.432;2024-02-04T00:25:33;11.50;;;4.70;;
66741;SDS011;53654;54.152;19.432;2024-02-04T00:28:02;13.50;;;5.50;;
66741;SDS011;53654;54.152;19.432;2024-02-04T00:30:30;14.00;;;5.50;;
66741;SDS011;53654;54.152;19.432;2024-02-04T00:32:58;13.10;;;4.80;;
66741;SDS011;53654;54.152;19.432;2024-02-04T00:35:31;11.70;;;3.90;;
66741;SDS011;53654;54.152;19.432;2024-02-04T00:37:59;10.20;;;3.30;;
66741;SDS011;53654;54.152;19.432;2024-02-04T00:40:27;9.70;;;3.30;;
66741;SDS011;53654;54.152;19.432;2024-02-04T00:42:55;9.80;;;3.50;;
66741;SDS011;53654;54.152;19.432;2024-02-04T00:45:23;11.60;;;3.70;;
66741;SDS011;53654;54.152;19.432;2024-02-04T00:47:52;10.40;;;3.40;;
66741;SDS011;53654;54.152;19.432;2024-02-04T00:50:20;10.00;;;3.30;;
66741;SDS011;53654;54.152;19.432;2024-02-04T00:52:48;11.20;;;4.10;;
66741;SDS011;53654;54.152;19.432;2024-02-04T00:55:16;10.80;;;3.70;;
66741;SDS011;53654;54.152;19.432;2024-02-04T00:57:44;11.30;;;3.90;;
66741;SDS011;53654;54.152;19.432;2024-02-04T01:00:13;13.30;;;3.90;;
66741;SDS011;53654;54.152;19.432;2024-02-04T01:02:41;10.60;;;3.60;;
66741;SDS011;53654;54.152;19.432;2024-02-04T01:05:09;11.70;;;3.50;;
66741;SDS011;53654;54.152;19.432;2024-02-04T01:07:37;9.40;;;3.20;;
66741;SDS011;53654;54.152;19.432;2024-02-04T01:10:05;10.00;;;3.50;;
66741;SDS011;53654;54.152;19.432;2024-02-04T01:12:36;11.50;;;3.70;;
66741;SDS011;53654;54.152;19.432;2024-02-04T01:15:05;11.40;;;3.90;;
66741;SDS011;53654;54.152;19.432;2024-02-04T01:17:33;12.00;;;3.40;;
66741;SDS011;53654;54.152;19.432;2024-02-04T01:20:02;11.60;;;3.70;;
66741;SDS011;53654;54.152;19.432;2024-02-04T01:22:31;11.30;;;3.50;;
66741;SDS011;53654;54.152;19.432;2024-02-04T01:24:59;12.80;;;3.90;;
66741;SDS011;53654;54.152;19.432;2024-02-04T01:27:27;12.30;;;4.00;;
66741;SDS011;53654;54.152;19.432;2024-02-04T01:29:55;13.20;;;3.80;;
66741;SDS011;53654;54.152;19.432;2024-02-04T01:32:24;11.70;;;3.90;;
66741;SDS011;53654;54.152;19.432;2024-02-04T01:34:52;10.90;;;3.60;;
66741;SDS011;53654;54.152;19.432;2024-02-04T01:37:21;10.50;;;3.40;;
66741;SDS011;53654;54.152;19.432;2024-02-04T01:39:49;12.40;;;3.80;;
66741;SDS011;53654;54.152;19.432;2024-02-04T01:42:18;11.60;;;3.60;;
66741;SDS011;53654;54.152;19.432;2024-02-04T01:44:46;11.60;;;3.70;;
66741;SDS011;53654;54.152;19.432;2024-02-04T01:47:14;12.60;;;5.30;;
66741;SDS011;53654;54.152;19.432;2024-02-04T01:49:43;11.60;;;3.90;;
66741;SDS011;53654;54.152;19.432;2024-02-04T01:52:12;11.30;;;3.80;;
66741;SDS011;53654;54.152;19.432;2024-02-04T01:54:40;10.70;;;3.90;;
66741;SDS011;53654;54.152;19.432;2024-02-04T01:57:10;11.00;;;3.50;;
66741;SDS011;53654;54.152;19.432;2024-02-04T01:59:40;12.00;;;3.80;;
66741;SDS011;53654;54.152;19.432;2024-02-04T02:02:08;12.10;;;3.90;;
66741;SDS011;53654;54.152;19.432;2024-02-04T02:04:36;13.90;;;4.10;;
66741;SDS011;53654;54.152;19.432;2024-02-04T02:07:04;11.80;;;3.90;;
66741;SDS011;53654;54.152;19.432;2024-02-04T02:09:35;11.50;;;3.80;;
66741;SDS011;53654;54.152;19.432;2024-02-04T02:12:07;10.20;;;3.60;;
66741;SDS011;53654;54.152;19.432;2024-02-04T02:14:50;12.00;;;3.60;;
66741;SDS011;53654;54.152;19.432;2024-02-04T02:17:29;10.50;;;3.60;;
66741;SDS011;53654;54.152;19.432;2024-02-04T02:20:10;9.80;;;3.50;;
66741;SDS011;53654;54.152;19.432;2024-02-04T02:22:50;12.00;;;3.90;;
66741;SDS011;53654;54.152;19.432;2024-02-04T02:25:44;10.40;;;3.50;;
66741;SDS011;53654;54.152;19.432;2024-02-04T02:28:14;14.80;;;4.00;;
66741;SDS011;53654;54.152;19.432;2024-02-04T02:30:42;11.10;;;3.50;;
66741;SDS011;53654;54.152;19.432;2024-02-04T02:33:10;13.50;;;4.00;;
66741;SDS011;53654;54.152;19.432;2024-02-04T02:35:39;12.70;;;4.00;;
66741;SDS011;53654;54.152;19.432;2024-02-04T02:38:11;12.20;;;3.90;;
66741;SDS011;53654;54.152;19.432;2024-02-04T02:40:49;12.90;;;3.90;;
66741;SDS011;53654;54.152;19.432;2024-02-04T02:43:21;11.50;;;3.80;;
66741;SDS011;53654;54.152;19.432;2024-02-04T02:45:50;12.10;;;3.30;;
66741;SDS011;53654;54.152;19.432;2024-02-04T02:48:19;10.50;;;3.90;;
66741;SDS011;53654;54.152;19.432;2024-02-04T02:50:49;13.00;;;3.90;;
66741;SDS011;53654;54.152;19.432;2024-02-04T02:53:17;11.10;;;3.60;;
66741;SDS011;53654;54.152;19.432;2024-02-04T02:55:47;11.60;;;4.00;;
66741;SDS011;53654;54.152;19.432;2024-02-04T02:58:15;12.30;;;3.70;;
66741;SDS011;53654;54.152;19.432;2024-02-04T03:00:43;11.90;;;3.80;;
66741;SDS011;53654;54.152;19.432;2024-02-04T03:03:14;11.30;;;3.40;;
66741;SDS011;53654;54.152;19.432;2024-02-04T03:05:42;14.00;;;3.90;;
66741;SDS011;53654;54.152;19.432;2024-02-04T03:08:10;11.90;;;3.90;;
66741;SDS011;53654;54.152;19.432;2024-02-04T03:10:38;11.80;;;3.90;;
66741;SDS011;53654;54.152;19.432;2024-02-04T03:13:06;13.00;;;3.90;;
66741;SDS011;53654;54.152;19.432;2024-02-04T03:15:34;12.00;;;3.80;;
66741;SDS011;53654;54.152;19.432;2024-02-04T03:18:03;10.70;;;3.30;;
66741;SDS011;53654;54.152;19.432;2024-02-04T03:20:31;12.40;;;4.00;;
66741;SDS011;53654;54.152;19.432;2024-02-04T03:23:00;11.20;;;3.70;;
66741;SDS011;53654;54.152;19.432;2024-02-04T03:25:28;10.60;;;3.70;;
66741;SDS011;53654;54.152;19.432;2024-02-04T03:27:57;12.60;;;4.00;;
66741;SDS011;53654;54.152;19.432;2024-02-04T03:30:25;11.40;;;3.60;;
66741;SDS011;53654;54.152;19.432;2024-02-04T03:32:53;12.90;;;4.00;;
66741;SDS011;53654;54.152;19.432;2024-02-04T03:35:22;12.50;;;3.90;;
66741;SDS011;53654;54.152;19.432;2024-02-04T03:37:50;11.10;;;3.10;;
66741;SDS011;53654;54.152;19.432;2024-02-04T03:40:18;12.40;;;3.50;;
66741;SDS011;53654;54.152;19.432;2024-02-04T03:42:49;13.10;;;3.60;;
66741;SDS011;53654;54.152;19.432;2024-02-04T03:45:17;12.00;;;3.60;;
66741;SDS011;53654;54.152;19.432;2024-02-04T03:47:45;11.90;;;3.70;;
66741;SDS011;53654;54.152;19.432;2024-02-04T03:50:13;12.50;;;3.60;;
66741;SDS011;53654;54.152;19.432;2024-02-04T03:52:42;12.60;;;3.70;;
66741;SDS011;53654;54.152;19.432;2024-02-04T03:55:11;12.10;;;3.70;;
66741;SDS011;53654;54.152;19.432;2024-02-04T03:57:39;12.30;;;3.90;;
66741;SDS011;53654;54.152;19.432;2024-02-04T04:00:08;11.00;;;3.60;;
66741;SDS011;53654;54.152;19.432;2024-02-04T04:02:40;12.60;;;3.70;;
66741;SDS011;53654;54.152;19.432;2024-02-04T04:05:11;12.80;;;3.70;;
66741;SDS011;53654;54.152;19.432;2024-02-04T04:07:40;13.70;;;4.00;;
66741;SDS011;53654;54.152;19.432;2024-02-04T04:10:09;13.60;;;4.10;;
66741;SDS011;53654;54.152;19.432;2024-02-04T04:12:37;14.90;;;4.10;;
66741;SDS011;53654;54.152;19.432;2024-02-04T04:15:05;13.20;;;3.70;;
66741;SDS011;53654;54.152;19.432;2024-02-04T04:17:33;13.50;;;4.10;;
66741;SDS011;53654;54.152;19.432;2024-02-04T04:20:03;11.40;;;3.90;;
66741;SDS011;53654;54.152;19.432;2024-02-04T04:22:32;12.30;;;4.00;;
66741;SDS011;53654;54.152;19.432;2024-02-04T04:25:00;13.00;;;3.90;;
66741;SDS011;53654;54.152;19.432;2024-02-04T04:27:29;13.30;;;4.40;;
66741;SDS011;53654;54.152;19.432;2024-02-04T04:29:57;12.70;;;4.00;;
66741;SDS011;53654;54.152;19.432;2024-02-04T04:32:25;14.10;;;4.10;;
66741;SDS011;53654;54.152;19.432;2024-02-04T04:34:53;11.80;;;3.60;;
66741;SDS011;53654;54.152;19.432;2024-02-04T04:37:23;11.20;;;3.70;;
66741;SDS011;53654;54.152;19.432;2024-02-04T04:39:51;13.20;;;3.80;;
66741;SDS011;53654;54.152;19.432;2024-02-04T04:42:19;14.20;;;4.10;;
66741;SDS011;53654;54.152;19.432;2024-02-04T04:44:47;14.10;;;4.40;;
66741;SDS011;53654;54.152;19.432;2024-02-04T04:47:16;13.70;;;4.10;;
66741;SDS011;53654;54.152;19.432;2024-02-04T04:49:44;15.10;;;4.20;;
66741;SDS011;53654;54.152;19.432;2024-02-04T04:52:12;14.40;;;4.40;;
66741;SDS011;53654;54.152;19.432;2024-02-04T04:54:41;11.70;;;3.80;;
66741;SDS011;53654;54.152;19.432;2024-02-04T04:57:09;11.50;;;3.80;;
66741;SDS011;53654;54.152;19.432;2024-02-04T04:59:38;11.60;;;3.70;;
66741;SDS011;53654;54.152;19.432;2024-02-04T05:02:07;12.30;;;3.70;;
66741;SDS011;53654;54.152;19.432;2024-02-04T05:04:35;16.30;;;4.20;;
66741;SDS011;53654;54.152;19.432;2024-02-04T05:07:03;12.10;;;3.60;;
66741;SDS011;53654;54.152;19.432;2024-02-04T05:09:32;10.50;;;3.50;;
66741;SDS011;53654;54.152;19.432;2024-02-04T05:12:01;13.20;;;3.90;;
66741;SDS011;53654;54.152;19.432;2024-02-04T05:14:30;12.60;;;4.10;;
66741;SDS011;53654;54.152;19.432;2024-02-04T05:16:58;12.60;;;3.80;;
66741;SDS011;53654;54.152;19.432;2024-02-04T05:19:26;11.60;;;3.70;;
66741;SDS011;53654;54.152;19.432;2024-02-04T05:21:54;13.60;;;3.90;;
66741;SDS011;53654;54.152;19.432;2024-02-04T05:24:23;12.20;;;3.80;;
66741;SDS011;53654;54.152;19.432;2024-02-04T05:26:51;11.20;;;3.60;;
66741;SDS011;53654;54.152;19.432;2024-02-04T05:29:19;14.10;;;3.80;;
66741;SDS011;53654;54.152;19.432;2024-02-04T05:31:47;12.30;;;3.80;;
66741;SDS011;53654;54.152;19.432;2024-02-04T05:34:16;10.80;;;3.90;;
66741;SDS011;53654;54.152;19.432;2024-02-04T05:36:45;11.30;;;3.50;;
66741;SDS011;53654;54.152;19.432;2024-02-04T05:39:14;11.00;;;3.60;;
66741;SDS011;53654;54.152;19.432;2024-02-04T05:41:43;12.60;;;3.60;;
66741;SDS011;53654;54.152;19.432;2024-02-04T05:44:11;11.90;;;3.60;;
66741;SDS011;53654;54.152;19.432;2024-02-04T05:46:39;9.80;;;3.70;;
66741;SDS011;53654;54.152;19.432;2024-02-04T05:49:08;10.80;;;3.60;;
66741;SDS011;53654;54.152;19.432;2024-02-04T05:51:37;13.60;;;3.40;;
66741;SDS011;53654;54.152;19.432;2024-02-04T05:54:07;11.60;;;3.10;;
66741;SDS011;53654;54.152;19.432;2024-02-04T05:56:36;10.30;;;3.40;;
66741;SDS011;53654;54.152;19.432;2024-02-04T05:59:04;13.40;;;3.70;;
66741;SDS011;53654;54.152;19.432;2024-02-04T06:01:33;9.40;;;3.20;;
66741;SDS011;53654;54.152;19.432;2024-02-04T06:04:01;11.60;;;3.40;;
66741;SDS011;53654;54.152;19.432;2024-02-04T06:06:30;11.80;;;3.40;;
66741;SDS011;53654;54.152;19.432;2024-02-04T06:08:58;11.00;;;3.40;;
66741;SDS011;53654;54.152;19.432;2024-02-04T06:11:27;9.20;;;3.10;;
66741;SDS011;53654;54.152;19.432;2024-02-04T06:13:55;11.40;;;3.50;;
66741;SDS011;53654;54.152;19.432;2024-02-04T06:16:23;13.20;;;3.60;;
66741;SDS011;53654;54.152;19.432;2024-02-04T06:18:51;11.50;;;3.60;;
66741;SDS011;53654;54.152;19.432;2024-02-04T06:21:23;10.60;;;3.10;;
66741;SDS011;53654;54.152;19.432;2024-02-04T06:23:52;10.40;;;3.30;;
66741;SDS011;53654;54.152;19.432;2024-02-04T06:26:20;10.90;;;3.30;;
66741;SDS011;53654;54.152;19.432;2024-02-04T06:28:48;10.90;;;3.30;;
66741;SDS011;53654;54.152;19.432;2024-02-04T06:31:19;11.30;;;3.60;;
66741;SDS011;53654;54.152;19.432;2024-02-04T06:33:47;10.80;;;3.50;;
66741;SDS011;53654;54.152;19.432;2024-02-04T06:36:16;14.10;;;3.60;;
66741;SDS011;53654;54.152;19.432;2024-02-04T06:38:44;13.10;;;3.60;;
66741;SDS011;53654;54.152;19.432;2024-02-04T06:41:12;10.70;;;3.70;;
66741;SDS011;53654;54.152;19.432;2024-02-04T06:43:40;14.10;;;4.00;;
66741;SDS011;53654;54.152;19.432;2024-02-04T06:46:08;12.10;;;3.80;;
66741;SDS011;53654;54.152;19.432;2024-02-04T06:48:36;12.10;;;3.80;;
66741;SDS011;53654;54.152;19.432;2024-02-04T06:51:04;10.90;;;3.80;;
66741;SDS011;53654;54.152;19.432;2024-02-04T06:53:32;14.40;;;4.30;;
66741;SDS011;53654;54.152;19.432;2024-02-04T06:56:01;14.10;;;4.30;;
66741;SDS011;53654;54.152;19.432;2024-02-04T06:58:29;12.20;;;4.50;;
66741;SDS011;53654;54.152;19.432;2024-02-04T07:00:57;13.10;;;4.50;;
66741;SDS011;53654;54.152;19.432;2024-02-04T07:03:25;14.40;;;4.80;;
66741;SDS011;53654;54.152;19.432;2024-02-04T07:05:54;14.10;;;5.00;;
66741;SDS011;53654;54.152;19.432;2024-02-04T07:08:22;14.20;;;4.50;;
66741;SDS011;53654;54.152;19.432;2024-02-04T07:10:50;14.20;;;4.30;;
66741;SDS011;53654;54.152;19.432;2024-02-04T07:13:19;11.00;;;4.00;;
66741;SDS011;53654;54.152;19.432;2024-02-04T07:15:47;10.80;;;4.10;;
66741;SDS011;53654;54.152;19.432;2024-02-04T07:18:15;13.10;;;4.30;;
66741;SDS011;53654;54.152;19.432;2024-02-04T07:20:45;12.90;;;4.00;;
66741;SDS011;53654;54.152;19.432;2024-02-04T07:23:14;12.00;;;4.20;;
66741;SDS011;53654;54.152;19.432;2024-02-04T07:25:42;10.60;;;4.10;;
66741;SDS011;53654;54.152;19.432;2024-02-04T07:28:10;11.90;;;4.20;;
66741;SDS011;53654;54.152;19.432;2024-02-04T07:30:38;11.50;;;4.40;;
66741;SDS011;53654;54.152;19.432;2024-02-04T07:33:07;11.90;;;4.50;;
66741;SDS011;53654;54.152;19.432;2024-02-04T07:35:35;11.90;;;4.30;;
66741;SDS011;53654;54.152;19.432;2024-02-04T07:38:03;12.30;;;4.90;;
66741;SDS011;53654;54.152;19.432;2024-02-04T07:40:31;12.20;;;5.00;;
66741;SDS011;53654;54.152;19.432;2024-02-04T07:42:59;11.40;;;4.10;;
66741;SDS011;53654;54.152;19.432;2024-02-04T07:45:27;12.60;;;4.50;;
66741;SDS011;53654;54.152;19.432;2024-02-04T07:47:55;12.90;;;4.60;;
66741;SDS011;53654;54.152;19.432;2024-02-04T07:50:24;13.90;;;5.00;;
66741;SDS011;53654;54.152;19.432;2024-02-04T07:52:52;11.80;;;4.50;;
66741;SDS011;53654;54.152;19.432;2024-02-04T07:55:20;11.90;;;4.00;;
66741;SDS011;53654;54.152;19.432;2024-02-04T07:57:48;11.10;;;3.80;;
66741;SDS011;53654;54.152;19.432;2024-02-04T08:00:16;12.00;;;4.20;;
66741;SDS011;53654;54.152;19.432;2024-02-04T08:02:44;10.80;;;3.60;;
66741;SDS011;53654;54.152;19.432;2024-02-04T08:05:13;13.80;;;4.00;;
66741;SDS011;53654;54.152;19.432;2024-02-04T08:07:42;9.40;;;4.10;;
66741;SDS011;53654;54.152;19.432;2024-02-04T08:10:10;14.50;;;4.80;;
66741;SDS011;53654;54.152;19.432;2024-02-04T08:12:38;13.40;;;4.80;;
66741;SDS011;53654;54.152;19.432;2024-02-04T08:15:07;13.20;;;4.50;;
66741;SDS011;53654;54.152;19.432;2024-02-04T08:17:35;12.70;;;4.50;;
66741;SDS011;53654;54.152;19.432;2024-02-04T08:20:03;9.90;;;4.10;;
66741;SDS011;53654;54.152;19.432;2024-02-04T08:22:32;12.60;;;4.10;;
66741;SDS011;53654;54.152;19.432;2024-02-04T08:25:01;14.00;;;4.30;;
66741;SDS011;53654;54.152;19.432;2024-02-04T08:27:30;11.80;;;4.00;;
66741;SDS011;53654;54.152;19.432;2024-02-04T08:29:59;9.00;;;3.70;;
66741;SDS011;53654;54.152;19.432;2024-02-04T08:32:27;9.60;;;3.70;;
66741;SDS011;53654;54.152;19.432;2024-02-04T08:34:55;10.20;;;4.00;;
66741;SDS011;53654;54.152;19.432;2024-02-04T08:37:23;11.20;;;4.00;;
66741;SDS011;53654;54.152;19.432;2024-02-04T08:39:55;11.80;;;4.60;;
66741;SDS011;53654;54.152;19.432;2024-02-04T08:42:23;9.40;;;3.90;;
66741;SDS011;53654;54.152;19.432;2024-02-04T08:44:51;10.50;;;4.40;;
66741;SDS011;53654;54.152;19.432;2024-02-04T08:47:19;10.50;;;5.00;;
66741;SDS011;53654;54.152;19.432;2024-02-04T08:49:47;10.70;;;4.30;;
66741;SDS011;53654;54.152;19.432;2024-02-04T08:52:16;10.40;;;3.90;;
66741;SDS011;53654;54.152;19.432;2024-02-04T08:54:45;11.40;;;4.40;;
66741;SDS011;53654;54.152;19.432;2024-02-04T08:57:13;8.50;;;4.10;;
66741;SDS011;53654;54.152;19.432;2024-02-04T08:59:42;10.40;;;4.00;;
66741;SDS011;53654;54.152;19.432;2024-02-04T09:02:10;10.30;;;4.10;;
66741;SDS011;53654;54.152;19.432;2024-02-04T09:04:38;9.50;;;3.60;;
66741;SDS011;53654;54.152;19.432;2024-02-04T09:07:09;9.40;;;4.00;;
66741;SDS011;53654;54.152;19.432;2024-02-04T09:09:38;11.30;;;4.00;;
66741;SDS011;53654;54.152;19.432;2024-02-04T09:12:06;10.30;;;3.80;;
66741;SDS011;53654;54.152;19.432;2024-02-04T09:14:35;10.20;;;3.80;;
66741;SDS011;53654;54.152;19.432;2024-02-04T09:17:04;10.60;;;3.90;;
66741;SDS011;53654;54.152;19.432;2024-02-04T09:19:34;11.00;;;4.00;;
66741;SDS011;53654;54.152;19.432;2024-02-04T09:22:09;9.50;;;3.80;;
66741;SDS011;53654;54.152;19.432;2024-02-04T09:24:37;10.40;;;4.20;;
66741;SDS011;53654;54.152;19.432;2024-02-04T09:27:05;9.30;;;4.10;;
66741;SDS011;53654;54.152;19.432;2024-02-04T09:29:33;10.70;;;4.00;;
66741;SDS011;53654;54.152;19.432;2024-02-04T09:32:02;9.90;;;3.90;;
66741;SDS011;53654;54.152;19.432;2024-02-04T09:34:30;10.10;;;4.20;;
66741;SDS011;53654;54.152;19.432;2024-02-04T09:36:59;10.90;;;4.50;;
66741;SDS011;53654;54.152;19.432;2024-02-04T09:39:27;8.90;;;3.90;;
66741;SDS011;53654;54.152;19.432;2024-02-04T09:41:57;11.00;;;4.20;;
66741;SDS011;53654;54.152;19.432;2024-02-04T09:44:27;10.70;;;4.50;;
66741;SDS011;53654;54.152;19.432;2024-02-04T09:46:55;11.40;;;4.70;;
66741;SDS011;53654;54.152;19.432;2024-02-04T09:49:26;11.90;;;5.00;;
66741;SDS011;53654;54.152;19.432;2024-02-04T09:51:56;11.00;;;5.10;;
66741;SDS011;53654;54.152;19.432;2024-02-04T09:54:28;11.80;;;5.10;;
66741;SDS011;53654;54.152;19.432;2024-02-04T09:56:58;12.50;;;4.70;;
66741;SDS011;53654;54.152;19.432;2024-02-04T09:59:27;11.60;;;4.70;;
66741;SDS011;53654;54.152;19.432;2024-02-04T10:01:55;11.90;;;5.10;;
66741;SDS011;53654;54.152;19.432;2024-02-04T10:04:24;11.40;;;4.90;;
66741;SDS011;53654;54.152;19.432;2024-02-04T10:06:53;11.10;;;4.80;;
66741;SDS011;53654;54.152;19.432;2024-02-04T10:09:22;11.20;;;4.60;;
66741;SDS011;53654;54.152;19.432;2024-02-04T10:11:50;10.70;;;5.00;;
66741;SDS011;53654;54.152;19.432;2024-02-04T10:14:18;12.20;;;4.60;;
66741;SDS011;53654;54.152;19.432;2024-02-04T10:16:48;10.20;;;4.60;;
66741;SDS011;53654;54.152;19.432;2024-02-04T10:19:17;12.10;;;5.60;;
66741;SDS011;53654;54.152;19.432;2024-02-04T10:21:45;10.30;;;4.60;;
66741;SDS011;53654;54.152;19.432;2024-02-04T10:24:13;10.80;;;4.50;;
66741;SDS011;53654;54.152;19.432;2024-02-04T10:26:41;8.90;;;4.20;;
66741;SDS011;53654;54.152;19.432;2024-02-04T10:29:11;11.30;;;5.30;;
66741;SDS011;53654;54.152;19.432;2024-02-04T10:31:39;12.40;;;6.30;;
66741;SDS011;53654;54.152;19.432;2024-02-04T10:34:07;12.20;;;5.50;;
66741;SDS011;53654;54.152;19.432;2024-02-04T10:36:36;10.40;;;4.80;;
66741;SDS011;53654;54.152;19.432;2024-02-04T10:39:04;13.70;;;6.10;;
66741;SDS011;53654;54.152;19.432;2024-02-04T10:41:32;11.10;;;4.60;;
66741;SDS011;53654;54.152;19.432;2024-02-04T10:44:02;10.60;;;4.50;;
66741;SDS011;53654;54.152;19.432;2024-02-04T10:46:32;10.40;;;4.70;;
66741;SDS011;53654;54.152;19.432;2024-02-04T10:49:03;12.80;;;5.90;;
66741;SDS011;53654;54.152;19.432;2024-02-04T10:51:37;11.50;;;5.70;;
66741;SDS011;53654;54.152;19.432;2024-02-04T10:54:07;9.30;;;5.00;;
66741;SDS011;53654;54.152;19.432;2024-02-04T10:56:42;10.70;;;4.70;;
66741;SDS011;53654;54.152;19.432;2024-02-04T10:59:15;11.60;;;6.40;;
66741;SDS011;53654;54.152;19.432;2024-02-04T11:01:49;12.60;;;6.50;;
66741;SDS011;53654;54.152;19.432;2024-02-04T11:04:18;10.00;;;4.70;;
66741;SDS011;53654;54.152;19.432;2024-02-04T11:06:46;8.40;;;3.80;;
66741;SDS011;53654;54.152;19.432;2024-02-04T11:09:15;8.50;;;3.70;;
66741;SDS011;53654;54.152;19.432;2024-02-04T11:11:45;7.50;;;3.50;;
66741;SDS011;53654;54.152;19.432;2024-02-04T11:14:15;7.50;;;3.80;;
66741;SDS011;53654;54.152;19.432;2024-02-04T11:25:15;6.10;;;2.70;;
66741;SDS011;53654;54.152;19.432;2024-02-04T11:27:54;5.60;;;2.50;;
66741;SDS011;53654;54.152;19.432;2024-02-04T11:30:23;5.50;;;2.60;;
66741;SDS011;53654;54.152;19.432;2024-02-04T11:32:51;6.10;;;3.40;;
66741;SDS011;53654;54.152;19.432;2024-02-04T11:35:20;6.10;;;3.20;;
66741;SDS011;53654;54.152;19.432;2024-02-04T11:37:49;5.30;;;2.40;;
66741;SDS011;53654;54.152;19.432;2024-02-04T11:40:18;6.20;;;2.60;;
66741;SDS011;53654;54.152;19.432;2024-02-04T11:42:51;6.80;;;2.70;;
66741;SDS011;53654;54.152;19.432;2024-02-04T11:45:19;6.20;;;2.90;;
66741;SDS011;53654;54.152;19.432;2024-02-04T11:47:47;7.30;;;3.40;;
66741;SDS011;53654;54.152;19.432;2024-02-04T11:50:25;7.70;;;3.30;;
66741;SDS011;53654;54.152;19.432;2024-02-04T11:53:02;9.40;;;4.60;;
66741;SDS011;53654;54.152;19.432;2024-02-04T11:55:34;7.70;;;3.90;;
66741;SDS011;53654;54.152;19.432;2024-02-04T11:58:12;6.10;;;3.40;;
66741;SDS011;53654;54.152;19.432;2024-02-04T12:00:45;6.90;;;3.00;;
66741;SDS011;53654;54.152;19.432;2024-02-04T12:03:14;8.00;;;3.50;;
66741;SDS011;53654;54.152;19.432;2024-02-04T12:05:42;5.50;;;2.80;;
66741;SDS011;53654;54.152;19.432;2024-02-04T12:08:11;8.10;;;3.30;;
66741;SDS011;53654;54.152;19.432;2024-02-04T12:10:39;7.40;;;3.40;;
66741;SDS011;53654;54.152;19.432;2024-02-04T12:13:08;6.80;;;3.10;;
66741;SDS011;53654;54.152;19.432;2024-02-04T12:15:37;7.00;;;3.50;;
66741;SDS011;53654;54.152;19.432;2024-02-04T12:18:07;6.80;;;3.50;;
66741;SDS011;53654;54.152;19.432;2024-02-04T12:20:36;7.80;;;3.30;;
66741;SDS011;53654;54.152;19.432;2024-02-04T12:23:05;8.40;;;4.30;;
66741;SDS011;53654;54.152;19.432;2024-02-04T12:25:35;5.90;;;3.50;;
66741;SDS011;53654;54.152;19.432;2024-02-04T12:28:08;5.90;;;3.60;;
66741;SDS011;53654;54.152;19.432;2024-02-04T12:30:37;6.10;;;3.50;;
66741;SDS011;53654;54.152;19.432;2024-02-04T12:33:06;6.80;;;3.30;;
66741;SDS011;53654;54.152;19.432;2024-02-04T12:35:34;5.90;;;3.30;;
66741;SDS011;53654;54.152;19.432;2024-02-04T12:38:03;6.80;;;3.50;;
66741;SDS011;53654;54.152;19.432;2024-02-04T12:40:31;8.60;;;3.90;;
66741;SDS011;53654;54.152;19.432;2024-02-04T12:43:00;6.40;;;4.00;;
66741;SDS011;53654;54.152;19.432;2024-02-04T12:45:33;8.10;;;4.50;;
66741;SDS011;53654;54.152;19.432;2024-02-04T12:48:01;7.20;;;4.30;;
66741;SDS011;53654;54.152;19.432;2024-02-04T12:50:30;7.10;;;4.20;;
66741;SDS011;53654;54.152;19.432;2024-02-04T12:53:05;7.50;;;4.10;;
66741;SDS011;53654;54.152;19.432;2024-02-04T12:55:35;7.10;;;3.80;;
66741;SDS011;53654;54.152;19.432;2024-02-04T12:58:05;7.90;;;4.10;;
66741;SDS011;53654;54.152;19.432;2024-02-04T13:00:35;7.50;;;3.30;;
66741;SDS011;53654;54.152;19.432;2024-02-04T13:03:04;7.10;;;3.60;;
66741;SDS011;53654;54.152;19.432;2024-02-04T13:05:37;7.80;;;3.90;;
66741;SDS011;53654;54.152;19.432;2024-02-04T13:08:05;6.90;;;3.20;;
66741;SDS011;53654;54.152;19.432;2024-02-04T13:10:36;7.60;;;3.80;;
66741;SDS011;53654;54.152;19.432;2024-02-04T13:13:08;7.30;;;4.20;;
66741;SDS011;53654;54.152;19.432;2024-02-04T13:15:42;7.90;;;4.80;;
66741;SDS011;53654;54.152;19.432;2024-02-04T13:18:12;9.50;;;5.10;;
66741;SDS011;53654;54.152;19.432;2024-02-04T13:20:43;7.10;;;4.30;;
66741;SDS011;53654;54.152;19.432;2024-02-04T13:23:13;7.50;;;3.70;;
66741;SDS011;53654;54.152;19.432;2024-02-04T13:25:41;7.60;;;3.60;;
66741;SDS011;53654;54.152;19.432;2024-02-04T13:28:09;9.50;;;3.90;;
66741;SDS011;53654;54.152;19.432;2024-02-04T13:30:38;7.80;;;4.10;;
66741;SDS011;53654;54.152;19.432;2024-02-04T13:33:06;9.50;;;4.70;;
66741;SDS011;53654;54.152;19.432;2024-02-04T13:35:36;8.10;;;4.70;;
66741;SDS011;53654;54.152;19.432;2024-02-04T13:38:05;9.10;;;5.20;;
66741;SDS011;53654;54.152;19.432;2024-02-04T13:40:33;7.60;;;4.60;;
66741;SDS011;53654;54.152;19.432;2024-02-04T13:43:01;9.20;;;4.60;;
66741;SDS011;53654;54.152;19.432;2024-02-04T13:45:29;9.10;;;4.70;;
66741;SDS011;53654;54.152;19.432;2024-02-04T13:47:57;7.10;;;3.60;;
66741;SDS011;53654;54.152;19.432;2024-02-04T13:50:25;7.60;;;4.10;;
66741;SDS011;53654;54.152;19.432;2024-02-04T13:52:54;7.80;;;3.80;;
66741;SDS011;53654;54.152;19.432;2024-02-04T13:55:22;7.10;;;3.90;;
66741;SDS011;53654;54.152;19.432;2024-02-04T13:57:50;10.10;;;5.20;;
66741;SDS011;53654;54.152;19.432;2024-02-04T14:00:19;9.30;;;5.30;;
66741;SDS011;53654;54.152;19.432;2024-02-04T14:02:47;7.20;;;4.00;;
66741;SDS011;53654;54.152;19.432;2024-02-04T14:05:17;6.60;;;4.30;;
66741;SDS011;53654;54.152;19.432;2024-02-04T14:07:47;7.90;;;4.70;;
66741;SDS011;53654;54.152;19.432;2024-02-04T14:10:15;8.10;;;4.20;;
66741;SDS011;53654;54.152;19.432;2024-02-04T14:12:43;10.20;;;4.70;;
66741;SDS011;53654;54.152;19.432;2024-02-04T14:15:13;8.00;;;4.50;;
66741;SDS011;53654;54.152;19.432;2024-02-04T14:17:41;9.20;;;5.30;;
66741;SDS011;53654;54.152;19.432;2024-02-04T14:20:10;9.40;;;4.90;;
66741;SDS011;53654;54.152;19.432;2024-02-04T14:22:38;9.90;;;5.10;;
66741;SDS011;53654;54.152;19.432;2024-02-04T14:25:06;10.90;;;6.70;;
66741;SDS011;53654;54.152;19.432;2024-02-04T14:27:36;8.40;;;5.20;;
66741;SDS011;53654;54.152;19.432;2024-02-04T14:30:04;10.30;;;6.00;;
66741;SDS011;53654;54.152;19.432;2024-02-04T14:32:34;8.30;;;4.70;;
66741;SDS011;53654;54.152;19.432;2024-02-04T14:35:03;9.80;;;4.90;;
66741;SDS011;53654;54.152;19.432;2024-02-04T14:37:32;9.10;;;4.70;;
66741;SDS011;53654;54.152;19.432;2024-02-04T14:40:00;8.20;;;4.40;;
66741;SDS011;53654;54.152;19.432;2024-02-04T14:42:28;8.30;;;4.80;;
66741;SDS011;53654;54.152;19.432;2024-02-04T14:44:57;9.80;;;5.70;;